Polk Army Air Field
KPOE : rendu visible

Aérodrome :











RETROUVEZ-NOUS SUR...

 
LOGIN :

S'inscrire | Disclaimer

   EN    FR    IT 

 









Légende :    VFR   VFR Marginal   IFR   IFR Intensif   IFR Très Intensif
Visi : 
Plafond : 
>= 8 km
>= 3000ft
5 à 8 km
1000 à 3000 ft
1500m à 5 km
500 à 1000 ft
800 à 1500m
200 à 500 ft
< 800m
< 200 ft
Symboles :   Orages  Brouillard  Fortes neiges  Fortes précipitations  Vent > 20 kt






- Altitude de l'aérodrome : 330 ft


KPOE - Polk Army Air Field

DERNIER METAR :
  • 260758Z AUTO 11007KT 7SM BKN046 BKN065 OVC090 10/08 A3004 RMK AO2 RAB18E35 SLP174 P0001 T01020075

METARs EXPIRÉS :
  • 260735Z AUTO 10009KT 6SM HZ SCT055 BKN070 OVC085 10/07 A3005 RMK AO2 RAB18E35 PRESFR SLP177
  • 260718Z AUTO 12007KT 7SM -RA OVC055 11/06 A3007 RMK AO2 RAB18 SLP184
  • 260658Z AUTO 11007KT 8SM OVC055 11/06 A3007 RMK AO2 RAE08 SLP184 P0000 T01100059
  • 260608Z AUTO 14006KT 6SM HZ BKN065 OVC085 11/07 A3009 RMK AO2 RAE08 SLP191
  • 260558Z AUTO 16004KT 7SM -RA VCTS BKN060 OVC085 12/06 A3010 RMK AO2 RAE04RAB26 SLP195 P0000 60000 T01150060 10143 20115 401770009 53001
  • 260526Z AUTO 16003KT 8SM -RA OVC060 12/05 A3009 RMK AO2 RAE04RAB26 SLP191
  • 260504Z AUTO 15005KT 8SM OVC060 12/04 A3009 RMK AO2 RAE04 SLP191

TAF AMD TAF KPOE
Valide du 26 à 06h jusqu'au 27 à 06h UTC


260645Z 2606/2706 14006KT 9999 OVC060 QNH3002INS
TEMPO 2606/2609 14010G15KT 6000 -TSRA OVC050CB
BECMG 2610/2611 12009KT 4800 -SHRA BR OVC005 QNH3002INS
BECMG 2615/2616 14009KT 6000 -SHRA OVC005 QNH2992INS
BECMG 2622/2623 01009KT 8000 -SHRA OVC005 QNH2990INS TX17/2620Z TN09/2612Z



MET'MAP, la Météo Aéronautique d'un coup d'oeil ! - Copyright ORBIFLY Décembre 2007 - Disclaimer

ORBIFLY MET'MAP TEAM :

Programmation & Développement : Alexandra Zaïnal
Sur une idée originale de : Baudouin d'Aumeries
Assistance à la programmation : Marc-Olivier Méhu
Soutien technique & logistique : Manuel Goepfert

Contact : metmap@orbifly.com




SOURCES & CREDITS :

   NOAA       Earth
Advisory